»·PEaware :: N734TD KCOS-KEGE

N734TD :: KCOS-KEGE

FLIGHT INFORMATION

Flight Status: Arrived
Operator: Privately registered:
United States
More flights under this callsign
Pilot: Chris S. (2433)
Aircraft: SOCATA TBM-900
(TBM9)
More flights by this aircraft type
Origin: KCOS City Of Colorado Springs Mun
United States
Destination: KEGE Eagle Co Regl
United States
More flights between these airports :: More routes between these airports
Route: +COS6 BRK FQF RLG
File this flight plan on PilotEdge
Remarks:
Altitude:
(Current/Filed)
20,000ft
Speed:
(Current/Filed)
250kts
Departed: 15-Aug-19 02:21 PM
Arrived: 15-Aug-19 03:00 PM
Distance/Time
Traveled:
114nm/0:39
Distance/Time
To Go:
Arrived

Flight Plot

Page will automatically refresh every two minutes.

Flight plan parsing failed; only flown route is shown


Map Options




Map Legend


Flown Route
Filed Route
Departure Airport
Arrival Airport
Navaid (VOR, NDB)
Fix

Horizontal Profiles

Position Reports

Time Latitude Longitude Heading Altitude Ground
Speed
15-Aug-19 14:07 38.810299 -104.720573 86 6097ft 0kts
15-Aug-19 14:08 38.810299 -104.720573 86 6097ft 0kts
15-Aug-19 14:09 38.810299 -104.720573 86 6097ft 0kts
15-Aug-19 14:10 38.810299 -104.720573 86 6097ft 0kts
15-Aug-19 14:11 38.810299 -104.720573 86 6097ft 0kts
15-Aug-19 14:12 38.810299 -104.720573 86 6097ft 0kts
15-Aug-19 14:13 38.810299 -104.720573 86 6097ft 0kts
15-Aug-19 14:14 38.810299 -104.720573 86 6097ft 0kts
15-Aug-19 14:15 38.811559 -104.720065 2 6105ft 9kts
15-Aug-19 14:16 38.812642 -104.717556 54 6111ft 7kts
15-Aug-19 14:17 38.816496 -104.717349 1 6129ft 19kts
15-Aug-19 14:18 38.820474 -104.717340 0 6147ft 11kts
15-Aug-19 14:19 38.822500 -104.715963 143 6161ft 9kts
15-Aug-19 14:20 38.798128 -104.715475 170 6990ft 126kts
15-Aug-19 14:21 38.781234 -104.688764 67 9038ft 158kts
15-Aug-19 14:22 38.810799 -104.652380 347 11257ft 160kts
15-Aug-19 14:23 38.853471 -104.659744 327 13675ft 154kts
15-Aug-19 14:24 38.891957 -104.685358 327 15879ft 167kts
15-Aug-19 14:25 38.936677 -104.715815 327 17595ft 188kts
15-Aug-19 14:26 38.983543 -104.747707 327 19560ft 194kts
15-Aug-19 14:27 39.037407 -104.784888 327 20483ft 231kts
15-Aug-19 14:28 39.093562 -104.823638 327 21951ft 230kts
15-Aug-19 14:29 39.153831 -104.865497 327 22207ft 263kts
15-Aug-19 14:30 39.220637 -104.912555 327 22197ft 278kts
15-Aug-19 14:31 39.289425 -104.960954 327 22193ft 282kts
15-Aug-19 14:32 39.358668 -105.009706 327 22192ft 283kts
15-Aug-19 14:33 39.400869 -105.090542 287 22212ft 276kts
15-Aug-19 14:34 39.429384 -105.183723 293 22191ft 276kts
15-Aug-19 14:35 39.464486 -105.272541 300 22188ft 274kts
15-Aug-19 14:36 39.503195 -105.355413 300 22184ft 260kts
15-Aug-19 14:37 39.540215 -105.434712 300 22206ft 252kts
15-Aug-19 14:38 39.576403 -105.512418 300 22252ft 248kts
15-Aug-19 14:39 39.612292 -105.589672 300 22297ft 247kts
15-Aug-19 14:40 39.647997 -105.666720 299 22348ft 247kts
15-Aug-19 14:41 39.684404 -105.745480 299 22399ft 263kts
15-Aug-19 14:42 39.722824 -105.828816 299 22394ft 272kts
15-Aug-19 14:43 39.762109 -105.914245 299 22360ft 275kts
15-Aug-19 14:44 39.801532 -106.000219 299 22313ft 276kts
15-Aug-19 14:45 39.840920 -106.086335 299 21852ft 284kts
15-Aug-19 14:46 39.882812 -106.178233 299 19747ft 302kts
15-Aug-19 14:47 39.924966 -106.270925 299 18461ft 284kts
15-Aug-19 14:48 39.964122 -106.357282 299 17906ft 271kts
15-Aug-19 14:49 39.958352 -106.447546 233 16843ft 296kts
15-Aug-19 14:50 39.881216 -106.493718 202 15226ft 317kts
15-Aug-19 14:51 39.798824 -106.528328 202 13981ft 304kts
15-Aug-19 14:52 39.720772 -106.561079 202 13294ft 296kts
15-Aug-19 14:53 39.681027 -106.627126 287 12209ft 254kts
15-Aug-19 14:54 39.671860 -106.716003 258 10373ft 239kts
15-Aug-19 14:55 39.661179 -106.788257 259 9274ft 161kts
15-Aug-19 14:56 39.651802 -106.840279 256 7824ft 129kts
15-Aug-19 14:57 39.646955 -106.876558 264 7137ft 90kts
15-Aug-19 14:58 39.643796 -106.906221 260 6530ft 69kts
15-Aug-19 14:59 39.642489 -106.912140 171 6509ft 0kts
15-Aug-19 15:00 39.640978 -106.912411 215 6517ft 9kts
15-Aug-19 15:01 39.640850 -106.912773 278 6515ft 0kts
15-Aug-19 15:02 39.640850 -106.912773 278 6515ft 0kts
15-Aug-19 15:03 39.640850 -106.912773 278 6515ft 0kts
15-Aug-19 15:04 39.640850 -106.912773 278 6515ft 0kts
15-Aug-19 15:05 39.640850 -106.912773 278 6515ft 0kts
15-Aug-19 15:06 39.640850 -106.912773 278 6515ft 0kts

Navigation Log

Ident Type
Flight plan parsing failed, navigation log unavailable